PWSweather.com
Personal Weather Stations
Station Observations
KAZTUCSO57
Countryside Manor, Tucson, AZ 85742

Countryside ManorTucson, AZ 85742

Lat: 32.3692, Lon: -111.066

Elevation: 2307

Station Type: Davis VP Pro+ 6163

http://frogville.us

Latest ConditionsUpdated 1:00:00 PM MST Thursday, May 5, 2016
Currently Today's Max Today's Min Today's Average
Temperature 93.7°F34.3°C 93.8°F34.3°C 62.9°F17.2°C 75.3°F24.1°C
Dew Point 7.6°F-13.6°C 39.5°F4.2°C 7.6°F-13.6°C 32.1°F0.1°C
Winds 3.5 mph SW5.6 kmh SW 4.6 mph SW7.4 kmh SW - 1.2 mph 1.9 kmh
Wind Gusts 8.1 mph13.0 kmh 9.2 mph14.8 kmh - -
Humidity 4% 36% 4% 24%
Pressure 29.68 in1005.1 mb 29.77 in1008.1 mb 29.68 in1005.1 mb -
Hour Temp Dew Point Humidity Winds Wind Gusts Pressure Precip Precip Rate Daily Precip Total
01:00 PM 93.7°F34.3°C 7.6°F-13.6°C 4% 3.5 mph SW5.6 kmh SW 8.1 mph13.0 kmh 29.68 in1005.1 mb - 0.00 in0.0 mm 0.00 in0.0 mm
12:50 PM 93.8°F34.3°C 7.7°F-13.5°C 4% 3.5 mph SE5.6 kmh SE 6.9 mph11.1 kmh 29.68 in1005.1 mb - 0.00 in0.0 mm 0.00 in0.0 mm
12:40 PM 93.6°F34.2°C 12.5°F-10.8°C 5% 1.2 mph E1.9 kmh E 4.6 mph7.4 kmh 29.69 in1005.4 mb - 0.00 in0.0 mm 0.00 in0.0 mm
12:30 PM 93.3°F34.1°C 16.5°F-8.6°C 6% 1.2 mph SE1.9 kmh SE 4.6 mph7.4 kmh 29.69 in1005.4 mb - 0.00 in0.0 mm 0.00 in0.0 mm
12:20 PM 92.7°F33.7°C 16.0°F-8.9°C 6% 2.3 mph SSW3.7 kmh SSW 5.8 mph9.3 kmh 29.70 in1005.8 mb - 0.00 in0.0 mm 0.00 in0.0 mm
12:10 PM 91.8°F33.2°C 19.0°F-7.2°C 7% 3.5 mph S5.6 kmh S 5.8 mph9.3 kmh 29.70 in1005.8 mb - 0.00 in0.0 mm 0.00 in0.0 mm
12:00 PM 91.2°F32.9°C 18.5°F-7.5°C 7% 4.6 mph SSW7.4 kmh SSW 6.9 mph11.1 kmh 29.71 in1006.1 mb - 0.00 in0.0 mm 0.00 in0.0 mm
11:50 AM 90.9°F32.7°C 18.3°F-7.6°C 7% 3.5 mph SSW5.6 kmh SSW 6.9 mph11.1 kmh 29.71 in1006.1 mb - 0.00 in0.0 mm 0.00 in0.0 mm
11:40 AM 90.9°F32.7°C 21.4°F-5.9°C 8% 2.3 mph SW3.7 kmh SW 8.1 mph13.0 kmh 29.72 in1006.4 mb - 0.00 in0.0 mm 0.00 in0.0 mm
11:30 AM 90.8°F32.7°C 21.4°F-5.9°C 8% 2.3 mph SSW3.7 kmh SSW 3.5 mph5.6 kmh 29.73 in1006.8 mb - 0.00 in0.0 mm 0.00 in0.0 mm
11:20 AM 90.3°F32.4°C 23.8°F-4.6°C 9% 2.3 mph S3.7 kmh S 4.6 mph7.4 kmh 29.73 in1006.8 mb - 0.00 in0.0 mm 0.00 in0.0 mm
11:10 AM 89.5°F31.9°C 23.2°F-4.9°C 9% 3.5 mph SE5.6 kmh SE 8.1 mph13.0 kmh 29.74 in1007.1 mb - 0.00 in0.0 mm 0.00 in0.0 mm
11:00 AM 88.9°F31.6°C 22.7°F-5.2°C 9% 4.6 mph SW7.4 kmh SW 9.2 mph14.8 kmh 29.74 in1007.1 mb - 0.00 in0.0 mm 0.00 in0.0 mm
10:50 AM 88.3°F31.3°C 29.3°F-1.5°C 12% 1.2 mph S1.9 kmh S 5.8 mph9.3 kmh 29.74 in1007.1 mb - 0.00 in0.0 mm 0.00 in0.0 mm
10:40 AM 87.6°F30.9°C 30.7°F-0.7°C 13% 2.3 mph ENE3.7 kmh ENE 5.8 mph9.3 kmh 29.74 in1007.1 mb - 0.00 in0.0 mm 0.00 in0.0 mm
10:30 AM 87.7°F30.9°C 32.6°F0.3°C 14% 2.3 mph SSW3.7 kmh SSW 5.8 mph9.3 kmh 29.75 in1007.5 mb - 0.00 in0.0 mm 0.00 in0.0 mm
10:20 AM 87.4°F30.8°C 32.3°F0.2°C 14% 2.3 mph SW3.7 kmh SW 5.8 mph9.3 kmh 29.75 in1007.5 mb - 0.00 in0.0 mm 0.00 in0.0 mm
10:10 AM 87.0°F30.6°C 32.0°F0.0°C 14% 1.2 mph SW1.9 kmh SW 3.5 mph5.6 kmh 29.76 in1007.8 mb - 0.00 in0.0 mm 0.00 in0.0 mm
10:00 AM 86.4°F30.2°C 31.5°F-0.3°C 14% 2.3 mph E3.7 kmh E 6.9 mph11.1 kmh 29.76 in1007.8 mb - 0.00 in0.0 mm 0.00 in0.0 mm
09:50 AM 85.6°F29.8°C 32.7°F0.4°C 15% 2.3 mph SSE3.7 kmh SSE 5.8 mph9.3 kmh 29.76 in1007.8 mb - 0.00 in0.0 mm 0.00 in0.0 mm
09:40 AM 85.4°F29.7°C 32.5°F0.3°C 15% 3.5 mph SSW5.6 kmh SSW 8.1 mph13.0 kmh 29.76 in1007.8 mb - 0.00 in0.0 mm 0.00 in0.0 mm
09:30 AM 85.0°F29.4°C 33.8°F1.0°C 16% 1.2 mph S1.9 kmh S 5.8 mph9.3 kmh 29.76 in1007.8 mb - 0.00 in0.0 mm 0.00 in0.0 mm
09:20 AM 84.5°F29.2°C 33.4°F0.8°C 16% 3.5 mph SE5.6 kmh SE 4.6 mph7.4 kmh 29.76 in1007.8 mb - 0.00 in0.0 mm 0.00 in0.0 mm
09:10 AM 83.9°F28.8°C 34.4°F1.3°C 17% 2.3 mph E3.7 kmh E 2.3 mph3.7 kmh 29.77 in1008.1 mb - 0.00 in0.0 mm 0.00 in0.0 mm
09:00 AM 83.4°F28.6°C 34.0°F1.1°C 17% 1.2 mph SSE1.9 kmh SSE 2.3 mph3.7 kmh 29.77 in1008.1 mb - 0.00 in0.0 mm 0.00 in0.0 mm
08:50 AM 82.9°F28.3°C 32.1°F0.1°C 16% 2.3 mph S3.7 kmh S 5.8 mph9.3 kmh 29.77 in1008.1 mb - 0.00 in0.0 mm 0.00 in0.0 mm
08:40 AM 82.0°F27.8°C 32.9°F0.5°C 17% 2.3 mph NE3.7 kmh NE 3.5 mph5.6 kmh 29.77 in1008.1 mb - 0.00 in0.0 mm 0.00 in0.0 mm
08:30 AM 81.2°F27.3°C 32.2°F0.1°C 17% 1.2 mph SE1.9 kmh SE 4.6 mph7.4 kmh 29.77 in1008.1 mb - 0.00 in0.0 mm 0.00 in0.0 mm
08:20 AM 80.0°F26.7°C 34.0°F1.1°C 19% 1.2 mph S1.9 kmh S 2.3 mph3.7 kmh 29.77 in1008.1 mb - 0.00 in0.0 mm 0.00 in0.0 mm
08:10 AM 78.9°F26.1°C 35.6°F2.0°C 21% Calm Calm 2.3 mph3.7 kmh 29.77 in1008.1 mb - 0.00 in0.0 mm 0.00 in0.0 mm
08:00 AM 77.7°F25.4°C 35.8°F2.1°C 22% 1.2 mph SSE1.9 kmh SSE 2.3 mph3.7 kmh 29.77 in1008.1 mb - 0.00 in0.0 mm 0.00 in0.0 mm
07:50 AM 76.2°F24.6°C 35.7°F2.1°C 23% Calm Calm 1.2 mph1.9 kmh 29.77 in1008.1 mb - 0.00 in0.0 mm 0.00 in0.0 mm
07:40 AM 74.7°F23.7°C 35.5°F1.9°C 24% 2.3 mph S3.7 kmh S 5.8 mph9.3 kmh 29.77 in1008.1 mb - 0.00 in0.0 mm 0.00 in0.0 mm
07:30 AM 73.1°F22.8°C 36.2°F2.3°C 26% 1.2 mph SSE1.9 kmh SSE 3.5 mph5.6 kmh 29.77 in1008.1 mb - 0.00 in0.0 mm 0.00 in0.0 mm
07:20 AM 71.9°F22.2°C 37.0°F2.8°C 28% Calm Calm 1.2 mph1.9 kmh 29.77 in1008.1 mb - 0.00 in0.0 mm 0.00 in0.0 mm
07:10 AM 71.2°F21.8°C 36.4°F2.4°C 28% 1.2 mph SE1.9 kmh SE 1.2 mph1.9 kmh 29.77 in1008.1 mb - 0.00 in0.0 mm 0.00 in0.0 mm
07:00 AM 69.6°F20.9°C 35.9°F2.2°C 29% 2.3 mph NE3.7 kmh NE 3.5 mph5.6 kmh 29.77 in1008.1 mb - 0.00 in0.0 mm 0.00 in0.0 mm
06:50 AM 67.9°F19.9°C 36.1°F2.3°C 31% 1.2 mph E1.9 kmh E 2.3 mph3.7 kmh 29.77 in1008.1 mb - 0.00 in0.0 mm 0.00 in0.0 mm
06:40 AM 66.0°F18.9°C 36.0°F2.2°C 33% 1.2 mph E1.9 kmh E 2.3 mph3.7 kmh 29.76 in1007.8 mb - 0.00 in0.0 mm 0.00 in0.0 mm
06:30 AM 64.2°F17.9°C 35.9°F2.2°C 35% Calm Calm 1.2 mph1.9 kmh 29.76 in1007.8 mb - 0.00 in0.0 mm 0.00 in0.0 mm
06:20 AM 63.1°F17.3°C 35.7°F2.1°C 36% Calm Calm -- 29.77 in1008.1 mb - 0.00 in0.0 mm 0.00 in0.0 mm
06:10 AM 62.9°F17.2°C 35.5°F1.9°C 36% Calm Calm -- 29.76 in1007.8 mb - 0.00 in0.0 mm 0.00 in0.0 mm
06:00 AM 62.9°F17.2°C 34.8°F1.6°C 35% Calm Calm 1.2 mph1.9 kmh 29.76 in1007.8 mb - 0.00 in0.0 mm 0.00 in0.0 mm
05:50 AM 63.0°F17.2°C 34.2°F1.2°C 34% Calm Calm -- 29.75 in1007.5 mb - 0.00 in0.0 mm 0.00 in0.0 mm
05:40 AM 63.1°F17.3°C 34.3°F1.3°C 34% Calm Calm -- 29.75 in1007.5 mb - 0.00 in0.0 mm 0.00 in0.0 mm
05:30 AM 63.4°F17.4°C 34.5°F1.4°C 34% Calm Calm -- 29.74 in1007.1 mb - 0.00 in0.0 mm 0.00 in0.0 mm
05:20 AM 63.7°F17.6°C 33.3°F0.7°C 32% 1.2 mph ENE1.9 kmh ENE 2.3 mph3.7 kmh 29.74 in1007.1 mb - 0.00 in0.0 mm 0.00 in0.0 mm
05:10 AM 64.0°F17.8°C 33.5°F0.8°C 32% 1.2 mph ENE1.9 kmh ENE 1.2 mph1.9 kmh 29.74 in1007.1 mb - 0.00 in0.0 mm 0.00 in0.0 mm
05:00 AM 64.1°F17.8°C 34.4°F1.3°C 33% Calm Calm 2.3 mph3.7 kmh 29.74 in1007.1 mb - 0.00 in0.0 mm 0.00 in0.0 mm
04:50 AM 64.1°F17.8°C 34.4°F1.3°C 33% Calm Calm 1.2 mph1.9 kmh 29.74 in1007.1 mb - 0.00 in0.0 mm 0.00 in0.0 mm
04:40 AM 64.0°F17.8°C 33.5°F0.8°C 32% 1.2 mph ENE1.9 kmh ENE 2.3 mph3.7 kmh 29.73 in1006.8 mb - 0.00 in0.0 mm 0.00 in0.0 mm
04:30 AM 64.0°F17.8°C 33.5°F0.8°C 32% 1.2 mph ENE1.9 kmh ENE 1.2 mph1.9 kmh 29.73 in1006.8 mb - 0.00 in0.0 mm 0.00 in0.0 mm
04:20 AM 64.3°F17.9°C 34.5°F1.4°C 33% 1.2 mph ENE1.9 kmh ENE 2.3 mph3.7 kmh 29.73 in1006.8 mb - 0.00 in0.0 mm 0.00 in0.0 mm
04:10 AM 64.6°F18.1°C 36.3°F2.4°C 35% Calm Calm 1.2 mph1.9 kmh 29.73 in1006.8 mb - 0.00 in0.0 mm 0.00 in0.0 mm
04:00 AM 64.8°F18.2°C 35.8°F2.1°C 34% Calm Calm 1.2 mph1.9 kmh 29.73 in1006.8 mb - 0.00 in0.0 mm 0.00 in0.0 mm
03:50 AM 65.1°F18.4°C 35.2°F1.8°C 33% 1.2 mph ENE1.9 kmh ENE 2.3 mph3.7 kmh 29.73 in1006.8 mb - 0.00 in0.0 mm 0.00 in0.0 mm
03:40 AM 65.5°F18.6°C 34.9°F1.6°C 32% Calm Calm 1.2 mph1.9 kmh 29.73 in1006.8 mb - 0.00 in0.0 mm 0.00 in0.0 mm
03:30 AM 65.9°F18.8°C 34.4°F1.3°C 31% Calm Calm -- 29.73 in1006.8 mb - 0.00 in0.0 mm 0.00 in0.0 mm
03:20 AM 66.2°F19.0°C 34.6°F1.4°C 31% Calm Calm -- 29.73 in1006.8 mb - 0.00 in0.0 mm 0.00 in0.0 mm
03:10 AM 66.2°F19.0°C 34.7°F1.5°C 31% Calm Calm -- 29.73 in1006.8 mb - 0.00 in0.0 mm 0.00 in0.0 mm
03:00 AM 66.3°F19.1°C 35.6°F2.0°C 32% Calm Calm -- 29.73 in1006.8 mb - 0.00 in0.0 mm 0.00 in0.0 mm
02:50 AM 66.5°F19.2°C 36.5°F2.5°C 33% Calm Calm 1.2 mph1.9 kmh 29.73 in1006.8 mb - 0.00 in0.0 mm 0.00 in0.0 mm
02:40 AM 66.8°F19.3°C 36.0°F2.2°C 32% Calm Calm 1.2 mph1.9 kmh 29.73 in1006.8 mb - 0.00 in0.0 mm 0.00 in0.0 mm
02:30 AM 67.2°F19.6°C 36.3°F2.4°C 32% Calm Calm -- 29.73 in1006.8 mb - 0.00 in0.0 mm 0.00 in0.0 mm
02:20 AM 67.6°F19.8°C 36.7°F2.6°C 32% Calm Calm -- 29.73 in1006.8 mb - 0.00 in0.0 mm 0.00 in0.0 mm
02:10 AM 67.9°F19.9°C 37.7°F3.2°C 33% Calm Calm -- 29.73 in1006.8 mb - 0.00 in0.0 mm 0.00 in0.0 mm
02:00 AM 68.0°F20.0°C 36.2°F2.3°C 31% Calm Calm 1.2 mph1.9 kmh 29.74 in1007.1 mb - 0.00 in0.0 mm 0.00 in0.0 mm
01:50 AM 68.1°F20.1°C 37.1°F2.8°C 32% Calm Calm 1.2 mph1.9 kmh 29.74 in1007.1 mb - 0.00 in0.0 mm 0.00 in0.0 mm
01:40 AM 68.4°F20.2°C 38.2°F3.4°C 33% 1.2 mph ENE1.9 kmh ENE 1.2 mph1.9 kmh 29.74 in1007.1 mb - 0.00 in0.0 mm 0.00 in0.0 mm
01:30 AM 69.0°F20.6°C 39.5°F4.2°C 34% Calm Calm 1.2 mph1.9 kmh 29.74 in1007.1 mb - 0.00 in0.0 mm 0.00 in0.0 mm
01:20 AM 69.5°F20.8°C 38.3°F3.5°C 32% Calm Calm -- 29.75 in1007.5 mb - 0.00 in0.0 mm 0.00 in0.0 mm
01:10 AM 69.7°F20.9°C 36.9°F2.7°C 30% Calm Calm -- 29.75 in1007.5 mb - 0.00 in0.0 mm 0.00 in0.0 mm
01:00 AM 70.1°F21.2°C 37.2°F2.9°C 30% Calm Calm -- 29.75 in1007.5 mb - 0.00 in0.0 mm 0.00 in0.0 mm
12:50 AM 70.8°F21.6°C 37.8°F3.2°C 30% Calm Calm 1.2 mph1.9 kmh 29.76 in1007.8 mb - 0.00 in0.0 mm 0.00 in0.0 mm
12:40 AM 71.5°F21.9°C 35.7°F2.1°C 27% 1.2 mph NNE1.9 kmh NNE 2.3 mph3.7 kmh 29.75 in1007.5 mb - 0.00 in0.0 mm 0.00 in0.0 mm
12:30 AM 71.7°F22.1°C 36.8°F2.7°C 28% Calm Calm -- 29.76 in1007.8 mb - 0.00 in0.0 mm 0.00 in0.0 mm
12:20 AM 72.7°F22.6°C 36.7°F2.6°C 27% Calm Calm 1.2 mph1.9 kmh 29.76 in1007.8 mb - 0.00 in0.0 mm 0.00 in0.0 mm
12:10 AM 73.4°F23.0°C 34.4°F1.3°C 24% Calm Calm -- 29.76 in1007.8 mb - 0.00 in0.0 mm 0.00 in0.0 mm
12:00 AM 74.9°F23.8°C 34.6°F1.4°C 23% Calm Calm 1.2 mph1.9 kmh 29.76 in1007.8 mb - 0.00 in0.0 mm 0.00 in0.0 mm